Aviation Digital Data Service (ADDS)

Output produced by METARs form (1203 UTC 16 July 2019)
found at http://www.aviationweather.gov/metar/data/
 
FEFF 161100Z 27007KT 9999 BKN023 FEW030TCU 31/23 Q1012 NOSIG
TAF FEFF 161100Z 1612/1718 VRB03KT 9999 SCT020 FEW033CB 
     PROB30 
     TEMPO 1613/1618 TS 
     BECMG 1702/1704 3000 BR BKN006 
     TEMPO 1703/1706 0800 FG 
     BECMG 1708/1710 BKN013 
     TEMPO 1712/1716 VRB15KT 4000 TSRA BKN023 FEW033CB
       
FEFT 161000Z 28004KT 9999 SCT025TCU 28/22 Q////